Time;durP1;ratioP1;P1;durP2;ratioP2;P2;SDS_P1;SDS_P2;PMS_P1;PMS_P2;Temp;Humidity;BMP_temperature;BMP_pressure;BME280_temperature;BME280_humidity;BME280_pressure;Samples;Min_cycle;Max_cycle;Signal;HPM_P1;HPM_P2
2023/05/11 00:00:36;;;;;;;0.47;0.47;;;13.70;99.90;;;;;;5053318;28;20250;-62
2023/05/11 00:03:03;;;;;;;0.50;0.50;;;13.70;99.90;;;;;;5053855;28;20309;-63
2023/05/11 00:05:29;;;;;;;0.40;0.40;;;13.70;99.90;;;;;;5054222;28;20695;-63
2023/05/11 00:07:56;;;;;;;0.53;0.53;;;13.70;99.90;;;;;;5054050;28;20238;-62
2023/05/11 00:10:23;;;;;;;0.60;0.60;;;13.70;99.90;;;;;;5053250;28;21847;-62
2023/05/11 00:12:50;;;;;;;0.50;0.50;;;13.70;99.90;;;;;;5053820;28;20311;-62
2023/05/11 00:15:18;;;;;;;0.40;0.40;;;13.70;99.90;;;;;;5053700;28;20230;-63
2023/05/11 00:17:45;;;;;;;0.50;0.50;;;13.70;99.90;;;;;;5053579;28;20208;-65
2023/05/11 00:20:12;;;;;;;0.60;0.60;;;13.70;99.90;;;;;;5048241;28;20212;-62
2023/05/11 00:22:39;;;;;;;0.63;0.63;;;13.70;99.90;;;;;;5045374;28;20220;-62
2023/05/11 00:25:07;;;;;;;0.40;0.40;;;13.70;99.90;;;;;;5045380;28;20199;-63
2023/05/11 00:27:34;;;;;;;0.47;0.47;;;13.70;99.90;;;;;;5053528;28;20220;-63
2023/05/11 00:30:00;;;;;;;0.40;0.40;;;13.70;99.90;;;;;;5053232;28;20207;-62
2023/05/11 00:32:29;;;;;;;0.63;0.60;;;13.60;99.90;;;;;;5053694;28;20220;-62
2023/05/11 00:34:55;;;;;;;0.50;0.50;;;13.60;99.90;;;;;;5053710;28;20204;-62
2023/05/11 00:37:22;;;;;;;0.50;0.50;;;13.50;99.90;;;;;;5053283;28;20200;-62
2023/05/11 00:39:49;;;;;;;0.40;0.40;;;13.50;99.90;;;;;;5052726;28;20214;-62
2023/05/11 00:42:16;;;;;;;0.40;0.40;;;13.60;99.90;;;;;;5053137;28;20310;-63
2023/05/11 00:44:43;;;;;;;0.40;0.40;;;13.50;99.90;;;;;;5053202;28;20742;-62
2023/05/11 00:47:10;;;;;;;0.53;0.50;;;13.60;99.90;;;;;;5053645;28;20262;-63
2023/05/11 00:49:38;;;;;;;0.50;0.50;;;13.60;99.90;;;;;;5052545;28;20200;-62
2023/05/11 00:52:06;;;;;;;0.40;0.40;;;13.50;99.90;;;;;;5053345;28;20224;-62
2023/05/11 00:54:33;;;;;;;0.30;0.30;;;13.50;99.90;;;;;;5053211;28;20867;-62
2023/05/11 00:57:00;;;;;;;0.40;0.40;;;13.50;99.90;;;;;;5053547;28;20200;-62
2023/05/11 00:59:27;;;;;;;0.70;0.70;;;13.50;99.90;;;;;;5052093;28;20232;-63
2023/05/11 01:01:55;;;;;;;0.50;0.50;;;13.50;99.90;;;;;;5053896;28;20783;-63
2023/05/11 01:04:22;;;;;;;0.60;0.60;;;13.50;99.90;;;;;;5052466;28;20200;-62
2023/05/11 01:06:55;;;;;;;0.60;0.60;;;13.50;99.90;;;;;;5051597;28;20210;-64
2023/05/11 01:09:31;;;;;;;0.40;0.40;;;13.50;99.90;;;;;;5052810;28;20204;-62
2023/05/11 01:12:13;;;;;;;0.40;0.40;;;13.50;99.90;;;;;;5053116;28;20231;-62
2023/05/11 01:14:45;;;;;;;0.47;0.40;;;13.50;99.90;;;;;;5053971;28;20605;-62
2023/05/11 01:17:21;;;;;;;0.47;0.47;;;13.50;99.90;;;;;;5055209;28;20208;-62
2023/05/11 01:19:56;;;;;;;0.40;0.40;;;13.50;99.90;;;;;;5053797;28;20290;-62
2023/05/11 01:22:34;;;;;;;0.50;0.50;;;13.60;99.90;;;;;;5053535;28;20232;-62
2023/05/11 01:25:27;;;;;;;0.63;0.60;;;13.60;99.90;;;;;;5053539;28;20212;-62
2023/05/11 01:28:14;;;;;;;0.57;0.57;;;13.60;99.90;;;;;;5052204;28;20641;-63
2023/05/11 01:30:49;;;;;;;0.40;0.40;;;13.60;99.90;;;;;;5052012;28;20204;-62
2023/05/11 01:33:18;;;;;;;0.90;0.83;;;13.60;99.90;;;;;;5052526;28;20261;-62
2023/05/11 01:35:49;;;;;;;1.17;0.60;;;13.70;99.90;;;;;;5052132;28;20329;-62
2023/05/11 01:38:20;;;;;;;0.93;0.70;;;13.70;99.90;;;;;;5052164;28;20205;-62
2023/05/11 01:40:50;;;;;;;0.47;0.33;;;13.80;99.90;;;;;;5051573;28;20671;-63
2023/05/11 01:43:22;;;;;;;0.40;0.40;;;13.70;99.90;;;;;;5052582;28;20222;-63
2023/05/11 01:45:53;;;;;;;0.47;0.47;;;13.70;99.90;;;;;;5046942;28;20207;-63
2023/05/11 01:48:24;;;;;;;0.50;0.50;;;13.70;99.90;;;;;;5051653;28;20219;-62
2023/05/11 01:50:52;;;;;;;0.40;0.40;;;13.60;99.90;;;;;;5049380;28;20207;-63
2023/05/11 01:53:21;;;;;;;0.60;0.60;;;13.70;99.90;;;;;;5052122;28;20210;-63
2023/05/11 01:55:49;;;;;;;0.87;0.50;;;13.60;99.90;;;;;;5052071;28;20791;-62
2023/05/11 01:58:17;;;;;;;0.50;0.50;;;13.60;99.90;;;;;;5051676;28;20616;-63
2023/05/11 02:00:45;;;;;;;0.50;0.50;;;13.60;99.90;;;;;;5050989;28;20218;-63
2023/05/11 02:03:15;;;;;;;0.60;0.60;;;13.60;99.90;;;;;;5051844;28;20212;-63
2023/05/11 02:05:43;;;;;;;0.50;0.50;;;13.50;99.90;;;;;;5051848;28;20547;-63
2023/05/11 02:08:12;;;;;;;0.40;0.40;;;13.50;99.90;;;;;;5051582;28;20230;-63
2023/05/11 02:10:41;;;;;;;0.40;0.40;;;13.50;99.90;;;;;;5050800;28;20214;-62
2023/05/11 02:13:09;;;;;;;0.40;0.40;;;13.50;99.90;;;;;;5051510;28;20208;-63
2023/05/11 02:15:39;;;;;;;0.50;0.40;;;13.50;99.90;;;;;;5051681;28;20234;-63
2023/05/11 02:18:07;;;;;;;0.63;0.60;;;13.50;99.90;;;;;;5051462;28;20200;-63
2023/05/11 02:20:38;;;;;;;0.57;0.57;;;13.50;99.90;;;;;;5051058;28;20230;-62
2023/05/11 02:23:06;;;;;;;0.50;0.50;;;13.50;99.90;;;;;;5051433;28;20780;-62
2023/05/11 02:25:33;;;;;;;0.50;0.50;;;13.50;99.90;;;;;;5051662;28;20204;-63
2023/05/11 02:28:00;;;;;;;0.50;0.50;;;13.50;99.90;;;;;;5050914;28;20224;-63
2023/05/11 02:30:28;;;;;;;0.30;0.30;;;13.50;99.90;;;;;;5050776;28;20214;-63
2023/05/11 02:32:57;;;;;;;0.80;0.80;;;13.40;99.90;;;;;;5051327;28;20277;-64
2023/05/11 02:35:28;;;;;;;0.53;0.53;;;13.40;99.90;;;;;;5050999;28;20277;-63
2023/05/11 02:38:00;;;;;;;1.17;0.40;;;13.40;99.90;;;;;;5051122;28;20667;-62
2023/05/11 02:40:31;;;;;;;0.60;0.53;;;13.50;99.90;;;;;;5050293;28;20239;-63
2023/05/11 02:43:07;;;;;;;0.57;0.50;;;13.50;99.90;;;;;;5050656;28;20224;-62
2023/05/11 02:45:35;;;;;;;0.73;0.50;;;13.50;99.90;;;;;;5051204;28;20207;-63
2023/05/11 02:48:07;;;;;;;0.50;0.50;;;13.40;99.90;;;;;;5051144;28;20232;-63
2023/05/11 02:50:37;;;;;;;0.60;0.60;;;13.40;99.90;;;;;;5050354;28;20725;-63
2023/05/11 02:53:10;;;;;;;0.70;0.70;;;13.30;99.90;;;;;;5051375;28;20612;-63
2023/05/11 02:55:37;;;;;;;0.40;0.40;;;13.40;99.90;;;;;;5050833;28;20557;-62
2023/05/11 02:58:04;;;;;;;0.50;0.50;;;13.40;99.90;;;;;;5051116;28;20211;-63
2023/05/11 03:00:31;;;;;;;0.30;0.30;;;13.40;99.90;;;;;;5050251;28;20207;-63
2023/05/11 03:02:58;;;;;;;0.60;0.60;;;13.50;99.90;;;;;;5050669;28;20244;-64
2023/05/11 03:05:25;;;;;;;0.60;0.60;;;13.50;99.90;;;;;;5050724;28;20211;-63
2023/05/11 03:07:53;;;;;;;0.40;0.40;;;13.50;99.90;;;;;;5050955;28;20220;-63
2023/05/11 03:10:22;;;;;;;0.60;0.60;;;13.40;99.90;;;;;;5050802;28;20583;-63
2023/05/11 03:12:49;;;;;;;1.27;0.60;;;13.50;99.90;;;;;;5052404;28;20224;-63
2023/05/11 03:15:16;;;;;;;1.03;0.50;;;13.50;99.90;;;;;;5051394;28;20203;-63
2023/05/11 03:17:44;;;;;;;0.60;0.60;;;13.50;99.90;;;;;;5050539;28;20215;-63
2023/05/11 03:20:11;;;;;;;0.60;0.60;;;13.60;99.90;;;;;;5050241;28;20655;-63
2023/05/11 03:22:40;;;;;;;0.90;0.50;;;13.60;99.90;;;;;;5052110;28;20272;-63
2023/05/11 03:25:09;;;;;;;0.40;0.40;;;13.60;99.90;;;;;;5054761;28;20207;-63
2023/05/11 03:27:38;;;;;;;0.60;0.60;;;13.60;99.90;;;;;;5054445;28;20211;-63
2023/05/11 03:30:08;;;;;;;0.40;0.40;;;13.60;99.90;;;;;;5053580;28;20209;-63
2023/05/11 03:32:36;;;;;;;0.43;0.43;;;13.60;99.90;;;;;;5054774;28;20220;-63
2023/05/11 03:35:03;;;;;;;0.40;0.40;;;13.60;99.90;;;;;;5054709;28;20208;-63
2023/05/11 03:37:31;;;;;;;0.40;0.40;;;13.70;99.90;;;;;;5054411;28;20207;-63
2023/05/11 03:40:00;;;;;;;0.60;0.60;;;13.70;99.90;;;;;;5054046;28;20200;-64
2023/05/11 03:42:28;;;;;;;0.50;0.50;;;13.70;99.90;;;;;;5055370;28;20294;-63
2023/05/11 03:44:58;;;;;;;0.50;0.50;;;13.80;99.90;;;;;;5055654;28;20204;-64
2023/05/11 03:47:26;;;;;;;0.63;0.63;;;13.90;99.90;;;;;;5055860;28;20261;-64
2023/05/11 03:49:53;;;;;;;0.67;0.67;;;13.80;99.90;;;;;;5057135;28;20234;-64
2023/05/11 03:52:21;;;;;;;0.60;0.60;;;13.80;99.90;;;;;;5063150;28;20314;-62
2023/05/11 03:54:48;;;;;;;0.60;0.60;;;13.60;99.90;;;;;;5054488;28;20287;-64
2023/05/11 03:57:15;;;;;;;0.60;0.60;;;13.70;99.90;;;;;;5054127;28;20671;-63
2023/05/11 03:59:42;;;;;;;0.60;0.60;;;13.80;99.90;;;;;;5053330;28;20210;-64
2023/05/11 04:02:11;;;;;;;0.50;0.50;;;13.80;99.90;;;;;;5054497;28;20262;-64
2023/05/11 04:04:38;;;;;;;0.70;0.70;;;13.80;99.90;;;;;;5054355;28;20223;-64
2023/05/11 04:07:04;;;;;;;0.60;0.60;;;13.80;99.90;;;;;;5054384;28;20212;-62
2023/05/11 04:09:31;;;;;;;0.63;0.63;;;13.90;99.90;;;;;;5053252;28;20315;-63
2023/05/11 04:11:58;;;;;;;0.53;0.53;;;13.90;99.90;;;;;;5055208;28;20258;-63
2023/05/11 04:14:25;;;;;;;0.60;0.60;;;13.80;99.90;;;;;;5054574;28;20267;-63
2023/05/11 04:16:52;;;;;;;0.60;0.60;;;13.80;99.90;;;;;;5054316;28;20204;-62
2023/05/11 04:19:20;;;;;;;0.73;0.73;;;13.80;99.90;;;;;;5053342;28;20541;-62
2023/05/11 04:21:46;;;;;;;0.50;0.50;;;13.70;99.90;;;;;;5054047;28;20239;-63
2023/05/11 04:24:13;;;;;;;0.53;0.53;;;13.70;99.90;;;;;;5053367;28;20203;-63
2023/05/11 04:26:40;;;;;;;0.60;0.60;;;13.80;99.90;;;;;;5043391;28;20288;-62
2023/05/11 04:29:07;;;;;;;0.60;0.60;;;13.80;99.90;;;;;;5032849;28;20221;-63
2023/05/11 04:31:34;;;;;;;0.57;0.57;;;13.70;99.90;;;;;;5033812;28;20233;-63
2023/05/11 04:34:01;;;;;;;0.60;0.60;;;13.70;99.90;;;;;;5032281;28;20643;-62
2023/05/11 04:36:29;;;;;;;0.53;0.53;;;13.60;99.90;;;;;;5031194;28;20235;-62
2023/05/11 04:38:56;;;;;;;0.77;0.73;;;13.60;99.90;;;;;;5036924;28;20193;-63
2023/05/11 04:41:22;;;;;;;0.80;0.80;;;13.70;99.90;;;;;;5040857;28;20232;-64
2023/05/11 04:43:49;;;;;;;0.53;0.53;;;13.70;99.90;;;;;;5039663;28;20845;-64
2023/05/11 04:46:16;;;;;;;0.70;0.70;;;13.70;99.90;;;;;;5033229;28;20211;-63
2023/05/11 04:48:43;;;;;;;0.57;0.57;;;13.60;99.90;;;;;;5033335;28;20227;-62
2023/05/11 04:51:10;;;;;;;0.80;0.80;;;13.50;99.90;;;;;;5032755;28;20228;-63
2023/05/11 04:53:38;;;;;;;0.60;0.60;;;13.50;99.90;;;;;;5013552;28;20256;-62
2023/05/11 04:56:05;;;;;;;0.50;0.50;;;13.60;99.90;;;;;;5014120;28;20209;-64
2023/05/11 04:58:32;;;;;;;0.70;0.70;;;13.60;99.90;;;;;;5033374;28;20205;-63
2023/05/11 05:00:59;;;;;;;1.30;0.63;;;13.60;99.90;;;;;;5032201;28;20705;-64
2023/05/11 05:03:25;;;;;;;0.70;0.70;;;13.70;99.90;;;;;;5032992;28;20263;-62
2023/05/11 05:05:52;;;;;;;0.83;0.83;;;13.70;99.90;;;;;;5032924;28;20215;-63
2023/05/11 05:08:20;;;;;;;0.80;0.80;;;13.70;99.90;;;;;;5033289;28;20221;-63
2023/05/11 05:10:48;;;;;;;1.03;0.93;;;13.60;99.90;;;;;;5032157;28;20748;-63
2023/05/11 05:13:16;;;;;;;0.80;0.80;;;13.60;99.90;;;;;;5033208;28;20216;-62
2023/05/11 05:15:43;;;;;;;0.90;0.90;;;13.40;99.90;;;;;;5033590;28;20208;-63
2023/05/11 05:18:10;;;;;;;1.00;1.00;;;13.20;99.90;;;;;;5032689;28;20299;-62
2023/05/11 05:20:37;;;;;;;1.00;1.00;;;13.00;99.90;;;;;;5032311;28;20209;-64
2023/05/11 05:23:04;;;;;;;1.17;1.13;;;12.90;99.90;;;;;;5038222;28;20233;-62
2023/05/11 05:25:32;;;;;;;1.07;1.07;;;12.70;99.90;;;;;;5035319;28;20200;-63
2023/05/11 05:28:00;;;;;;;1.60;1.27;;;12.70;99.90;;;;;;5035734;28;20665;-63
2023/05/11 05:30:27;;;;;;;2.40;1.30;;;12.80;99.90;;;;;;5015340;28;20263;-63
2023/05/11 05:32:55;;;;;;;1.00;1.00;;;12.80;99.90;;;;;;5041980;28;20235;-64
2023/05/11 05:35:22;;;;;;;0.90;0.90;;;12.90;99.90;;;;;;5052116;28;20200;-62
2023/05/11 05:37:48;;;;;;;1.00;1.00;;;12.90;99.90;;;;;;5042632;28;20211;-64
2023/05/11 05:40:15;;;;;;;1.00;1.00;;;13.00;99.90;;;;;;5040212;28;20215;-62
2023/05/11 05:42:42;;;;;;;1.00;1.00;;;13.10;99.90;;;;;;5046340;28;20224;-63
2023/05/11 05:45:11;;;;;;;1.00;1.00;;;13.20;99.90;;;;;;5039588;28;20695;-64
2023/05/11 05:47:39;;;;;;;1.37;1.10;;;13.20;99.90;;;;;;5032370;28;20259;-63
2023/05/11 05:50:07;;;;;;;1.07;0.97;;;13.30;99.90;;;;;;5031555;28;20235;-63
2023/05/11 05:52:34;;;;;;;0.90;0.90;;;13.30;99.90;;;;;;5032626;28;20225;-64
2023/05/11 05:55:00;;;;;;;0.83;0.83;;;13.30;99.90;;;;;;5040598;28;20200;-63
2023/05/11 05:57:29;;;;;;;1.00;1.00;;;13.30;99.90;;;;;;5031898;28;20204;-63
2023/05/11 05:59:56;;;;;;;1.20;1.20;;;13.30;99.90;;;;;;5039467;28;20209;-63
2023/05/11 06:02:24;;;;;;;1.00;1.00;;;13.30;99.90;;;;;;5047949;28;20227;-64
2023/05/11 06:04:51;;;;;;;1.00;1.00;;;13.40;99.90;;;;;;5051421;28;20208;-64
2023/05/11 06:07:18;;;;;;;1.07;1.07;;;13.40;99.90;;;;;;5052201;28;20378;-63
2023/05/11 06:09:44;;;;;;;1.00;1.00;;;13.40;99.90;;;;;;5051266;28;20241;-63
2023/05/11 06:12:11;;;;;;;1.03;1.03;;;13.40;99.90;;;;;;5051802;28;20726;-64
2023/05/11 06:14:40;;;;;;;1.30;1.17;;;13.50;99.90;;;;;;5052135;28;20211;-63
2023/05/11 06:17:06;;;;;;;1.00;1.00;;;13.40;99.90;;;;;;5051758;28;20243;-63
2023/05/11 06:19:35;;;;;;;0.80;0.80;;;13.40;99.90;;;;;;5051375;28;20662;-63
2023/05/11 06:22:02;;;;;;;0.73;0.73;;;13.50;99.90;;;;;;5051509;28;20256;-67
2023/05/11 06:24:29;;;;;;;1.00;1.00;;;13.60;99.90;;;;;;5052172;28;20206;-63
2023/05/11 06:26:56;;;;;;;0.90;0.90;;;13.70;99.90;;;;;;5053120;28;20204;-64
2023/05/11 06:29:23;;;;;;;0.97;0.97;;;13.70;99.90;;;;;;5070438;28;20287;-64
2023/05/11 06:31:51;;;;;;;1.00;1.00;;;13.70;99.90;;;;;;5069885;28;20230;-63
2023/05/11 06:34:19;;;;;;;1.10;0.97;;;13.80;99.90;;;;;;5070616;28;20215;-63
2023/05/11 06:36:47;;;;;;;1.03;1.03;;;13.90;99.90;;;;;;5069529;28;20215;-64
2023/05/11 06:39:14;;;;;;;1.20;1.20;;;13.90;99.90;;;;;;5054971;28;20599;-63
2023/05/11 06:41:40;;;;;;;1.00;1.00;;;13.90;99.90;;;;;;5053928;28;20314;-63
2023/05/11 06:44:07;;;;;;;1.27;1.27;;;13.90;99.90;;;;;;5054198;28;20222;-63
2023/05/11 06:46:34;;;;;;;1.10;1.10;;;13.90;99.90;;;;;;5053943;28;20235;-64
2023/05/11 06:49:01;;;;;;;1.10;1.10;;;13.80;99.90;;;;;;5051395;28;20577;-64
2023/05/11 06:51:28;;;;;;;1.00;1.00;;;13.80;99.90;;;;;;5050801;28;20270;-64
2023/05/11 06:53:56;;;;;;;1.10;1.10;;;13.80;99.90;;;;;;5051254;28;20203;-65
2023/05/11 06:56:23;;;;;;;1.20;1.20;;;14.00;99.90;;;;;;5051048;28;20238;-63
2023/05/11 06:58:50;;;;;;;1.00;1.00;;;14.00;99.90;;;;;;5050748;28;20196;-64
2023/05/11 07:01:16;;;;;;;1.00;1.00;;;14.00;99.90;;;;;;5050262;28;20230;-63
2023/05/11 07:03:43;;;;;;;1.40;1.30;;;14.00;99.90;;;;;;5051341;28;20204;-64
2023/05/11 07:06:10;;;;;;;1.27;1.20;;;13.90;99.90;;;;;;5050847;28;20215;-64
2023/05/11 07:08:37;;;;;;;1.20;1.20;;;13.80;99.90;;;;;;5050899;28;20662;-64
2023/05/11 07:11:06;;;;;;;1.30;1.30;;;13.80;99.90;;;;;;5049869;28;20288;-64
2023/05/11 07:13:32;;;;;;;1.00;1.00;;;13.90;99.90;;;;;;5050939;28;20215;-64
2023/05/11 07:15:59;;;;;;;1.00;1.00;;;13.80;99.90;;;;;;5051182;28;20204;-64
2023/05/11 07:18:26;;;;;;;1.00;1.00;;;13.90;99.90;;;;;;5050939;28;20207;-64
2023/05/11 07:20:53;;;;;;;0.97;0.97;;;14.00;99.90;;;;;;5049741;28;20199;-64
2023/05/11 07:23:20;;;;;;;0.83;0.83;;;14.20;99.90;;;;;;5052642;28;20203;-64
2023/05/11 07:25:46;;;;;;;0.90;0.90;;;14.30;99.90;;;;;;5055100;28;20225;-64
2023/05/11 07:28:15;;;;;;;0.80;0.80;;;14.40;99.90;;;;;;5051173;28;20210;-64
2023/05/11 07:30:41;;;;;;;0.93;0.93;;;14.60;99.90;;;;;;5050269;28;20219;-64
2023/05/11 07:33:08;;;;;;;0.97;0.80;;;14.80;99.90;;;;;;5050647;28;20650;-64
2023/05/11 07:35:35;;;;;;;1.17;1.17;;;14.70;99.90;;;;;;5051121;28;20593;-64
2023/05/11 07:38:04;;;;;;;0.90;0.90;;;14.50;99.90;;;;;;5050889;28;20273;-64
2023/05/11 07:40:30;;;;;;;0.97;0.97;;;14.50;99.90;;;;;;5049924;28;20200;-64
2023/05/11 07:42:57;;;;;;;1.17;1.17;;;14.60;99.90;;;;;;5050610;28;20232;-64
2023/05/11 07:45:25;;;;;;;1.00;1.00;;;14.70;99.90;;;;;;5050455;28;20200;-64
2023/05/11 07:47:52;;;;;;;0.83;0.83;;;14.80;99.90;;;;;;5050709;28;20208;-65
2023/05/11 07:50:19;;;;;;;0.83;0.83;;;14.80;99.90;;;;;;5050772;28;20638;-65
2023/05/11 07:52:46;;;;;;;0.80;0.80;;;14.70;99.90;;;;;;5048851;28;20232;-65
2023/05/11 07:55:13;;;;;;;0.80;0.80;;;14.60;99.90;;;;;;5049095;28;20223;-65
2023/05/11 07:57:40;;;;;;;0.97;0.90;;;14.40;99.90;;;;;;5049791;28;20214;-65
2023/05/11 08:00:09;;;;;;;1.10;1.10;;;14.40;99.90;;;;;;5048861;28;20197;-65
2023/05/11 08:02:37;;;;;;;0.83;0.83;;;14.50;99.90;;;;;;5049332;28;20726;-65
2023/05/11 08:05:04;;;;;;;0.90;0.90;;;14.50;99.90;;;;;;5049254;28;20308;-65
2023/05/11 08:07:31;;;;;;;0.83;0.83;;;14.50;99.90;;;;;;5049510;28;20216;-65
2023/05/11 08:09:58;;;;;;;0.90;0.90;;;14.70;99.90;;;;;;5051711;28;20235;-64
2023/05/11 08:12:24;;;;;;;0.93;0.90;;;14.90;99.90;;;;;;5052840;28;20314;-64
2023/05/11 08:14:51;;;;;;;0.97;0.97;;;14.80;99.90;;;;;;5053050;28;20210;-64
2023/05/11 08:17:18;;;;;;;1.00;1.00;;;14.90;99.90;;;;;;5052513;28;20210;-64
2023/05/11 08:19:46;;;;;;;0.90;0.90;;;14.90;99.90;;;;;;5052579;28;20207;-64
2023/05/11 08:22:13;;;;;;;0.80;0.80;;;14.90;99.90;;;;;;5053454;28;20228;-65
2023/05/11 08:24:40;;;;;;;1.03;1.03;;;15.00;99.90;;;;;;5049473;28;20201;-64
2023/05/11 08:27:07;;;;;;;1.10;1.10;;;15.10;99.90;;;;;;5033801;28;20214;-64
2023/05/11 08:29:34;;;;;;;0.80;0.80;;;15.20;99.90;;;;;;5032766;28;20319;-64
2023/05/11 08:32:01;;;;;;;1.00;1.00;;;15.20;99.90;;;;;;5033812;28;20311;-64
2023/05/11 08:34:27;;;;;;;1.00;1.00;;;15.20;99.90;;;;;;5033401;28;20209;-64
2023/05/11 08:36:56;;;;;;;0.90;0.90;;;15.30;99.90;;;;;;5034166;28;20200;-63
2023/05/11 08:39:23;;;;;;;0.90;0.90;;;15.30;99.90;;;;;;5032944;28;20245;-64
2023/05/11 08:41:50;;;;;;;0.90;0.90;;;15.30;99.90;;;;;;5033552;28;20228;-64
2023/05/11 08:44:18;;;;;;;0.90;0.90;;;15.60;99.90;;;;;;5033728;28;20228;-64
2023/05/11 08:46:46;;;;;;;0.97;0.97;;;15.80;99.90;;;;;;5033687;28;20204;-63
2023/05/11 08:49:14;;;;;;;0.90;0.90;;;15.80;99.90;;;;;;5032084;28;20258;-64
2023/05/11 08:51:42;;;;;;;1.00;1.00;;;15.80;99.90;;;;;;5033380;28;20256;-63
2023/05/11 08:54:11;;;;;;;0.93;0.93;;;15.50;99.90;;;;;;5033493;28;20205;-64
2023/05/11 08:56:41;;;;;;;1.13;1.00;;;15.50;99.90;;;;;;5033318;28;20215;-65
2023/05/11 08:59:08;;;;;;;1.00;1.00;;;15.40;99.90;;;;;;5032054;28;20204;-65
2023/05/11 09:01:36;;;;;;;0.90;0.90;;;15.40;99.90;;;;;;5032919;28;20230;-63
2023/05/11 09:04:04;;;;;;;0.97;0.97;;;15.20;99.90;;;;;;5033293;28;20212;-66
2023/05/11 09:06:32;;;;;;;1.03;1.03;;;15.10;99.90;;;;;;5032971;28;20714;-65
2023/05/11 09:08:59;;;;;;;1.37;1.27;;;15.30;99.90;;;;;;5032839;28;20258;-65
2023/05/11 09:11:28;;;;;;;1.10;1.10;;;15.40;99.90;;;;;;5032218;28;20311;-64
2023/05/11 09:13:55;;;;;;;0.90;0.90;;;15.60;99.90;;;;;;5033022;28;20232;-63
2023/05/11 09:16:22;;;;;;;1.00;1.00;;;15.70;99.90;;;;;;5032795;28;20204;-65
2023/05/11 09:18:49;;;;;;;0.97;0.97;;;15.70;99.90;;;;;;5033115;28;20208;-63
2023/05/11 09:21:16;;;;;;;1.10;1.10;;;15.70;99.90;;;;;;5030806;28;20588;-64
2023/05/11 09:23:43;;;;;;;0.90;0.90;;;15.80;99.90;;;;;;5032849;28;20210;-64
2023/05/11 09:26:14;;;;;;;0.90;0.90;;;16.10;99.90;;;;;;5032842;28;20998;-64
2023/05/11 09:28:50;;;;;;;0.90;0.90;;;16.30;99.90;;;;;;5032358;28;20204;-66
2023/05/11 09:31:37;;;;;;;1.00;1.00;;;16.40;99.90;;;;;;5032576;28;20224;-65
2023/05/11 09:34:15;;;;;;;1.02;1.02;;;16.50;99.90;;;;;;5033735;28;20299;-66
2023/05/11 09:36:42;;;;;;;1.00;1.00;;;16.40;99.90;;;;;;5032452;28;20208;-64
2023/05/11 09:39:09;;;;;;;0.90;0.90;;;16.20;99.90;;;;;;5028336;28;20204;-64
2023/05/11 09:41:36;;;;;;;0.93;0.93;;;16.10;99.90;;;;;;5040790;28;20212;-65
2023/05/11 09:44:12;;;;;;;1.03;1.03;;;15.90;99.90;;;;;;5034229;28;20205;-64
2023/05/11 09:46:41;;;;;;;1.20;1.10;;;15.80;99.90;;;;;;5030653;28;20291;-65
2023/05/11 09:49:08;;;;;;;1.23;1.13;;;15.90;99.90;;;;;;5029487;28;20680;-65
2023/05/11 09:51:36;;;;;;;0.90;0.90;;;15.80;99.90;;;;;;5029591;28;20286;-64
2023/05/11 09:54:16;;;;;;;1.00;1.00;;;16.00;99.90;;;;;;5030401;28;20204;-62
2023/05/11 09:56:47;;;;;;;1.20;1.20;;;16.00;99.90;;;;;;5031521;28;20212;-63
2023/05/11 09:59:38;;;;;;;1.10;1.10;;;16.20;99.90;;;;;;5029748;28;20209;-63
2023/05/11 10:02:22;;;;;;;1.27;1.20;;;16.40;99.90;;;;;;5028956;28;20235;-63
2023/05/11 10:04:50;;;;;;;1.10;1.10;;;16.20;99.90;;;;;;5028547;28;20676;-63
2023/05/11 10:07:28;;;;;;;1.00;1.00;;;16.10;99.90;;;;;;5028589;28;20683;-63
2023/05/11 10:09:56;;;;;;;1.10;1.10;;;16.20;99.90;;;;;;5028073;28;20228;-64
2023/05/11 10:12:26;;;;;;;0.80;0.80;;;16.50;99.90;;;;;;5028002;28;20246;-63
2023/05/11 10:14:56;;;;;;;1.23;1.23;;;16.60;99.90;;;;;;5028576;28;20216;-63
2023/05/11 10:17:23;;;;;;;0.90;0.90;;;16.60;99.90;;;;;;5028689;28;20293;-63
2023/05/11 10:19:50;;;;;;;1.10;1.10;;;16.80;99.90;;;;;;5028268;28;20209;-63
2023/05/11 10:22:18;;;;;;;1.03;1.00;;;16.80;99.90;;;;;;5028294;28;20224;-63
2023/05/11 10:24:45;;;;;;;1.10;1.10;;;17.00;99.90;;;;;;5028344;28;20278;-63
2023/05/11 10:27:12;;;;;;;1.00;1.00;;;17.20;99.90;;;;;;5028391;28;20213;-62
2023/05/11 10:29:39;;;;;;;1.03;1.03;;;17.30;99.90;;;;;;5029079;28;20204;-62
2023/05/11 10:32:08;;;;;;;0.90;0.90;;;17.40;99.90;;;;;;5028992;28;20229;-63
2023/05/11 10:34:38;;;;;;;1.00;1.00;;;17.50;99.90;;;;;;5027746;28;20201;-64
2023/05/11 10:37:05;;;;;;;1.17;1.10;;;17.70;99.90;;;;;;5030017;28;20212;-63
2023/05/11 10:39:33;;;;;;;0.97;0.97;;;18.00;99.90;;;;;;5028617;28;20264;-63
2023/05/11 10:42:24;;;;;;;1.10;1.10;;;18.10;99.90;;;;;;5029854;28;20227;-64
2023/05/11 10:45:02;;;;;;;1.23;1.23;;;18.00;99.90;;;;;;5030098;28;20208;-64
2023/05/11 10:47:58;;;;;;;1.07;1.00;;;18.10;99.90;;;;;;5029918;28;20239;-63
2023/05/11 10:50:40;;;;;;;0.93;0.93;;;18.10;99.90;;;;;;5029250;28;20235;-63
2023/05/11 10:53:32;;;;;;;0.90;0.90;;;18.10;99.90;;;;;;5029311;28;20267;-63
2023/05/11 10:56:20;;;;;;;0.97;0.97;;;18.20;99.90;;;;;;5029788;28;20595;-62
2023/05/11 10:59:02;;;;;;;0.87;0.87;;;18.30;99.90;;;;;;5030202;28;20213;-63
2023/05/11 11:01:38;;;;;;;0.90;0.90;;;18.00;99.90;;;;;;5029254;28;20228;-63
2023/05/11 11:04:07;;;;;;;1.07;1.07;;;18.10;99.90;;;;;;5028608;28;20234;-63
2023/05/11 11:06:35;;;;;;;1.00;1.00;;;18.10;99.90;;;;;;5028798;28;20208;-64
2023/05/11 11:09:04;;;;;;;1.10;1.10;;;17.70;99.90;;;;;;5028034;28;20218;-63
2023/05/11 11:11:33;;;;;;;0.80;0.80;;;17.60;99.90;;;;;;5028293;28;20243;-63
2023/05/11 11:14:02;;;;;;;0.90;0.90;;;17.30;99.90;;;;;;5028827;28;20219;-63
2023/05/11 11:16:29;;;;;;;1.20;1.20;;;17.30;99.90;;;;;;5028632;28;20212;-64
2023/05/11 11:19:35;;;;;;;1.07;1.07;;;17.40;99.90;;;;;;5029114;28;20205;-64
2023/05/11 11:22:04;;;;;;;1.40;1.30;;;17.20;99.90;;;;;;5025483;28;20234;-63
2023/05/11 11:24:43;;;;;;;1.13;1.13;;;17.30;99.90;;;;;;5028614;28;20932;-63
2023/05/11 11:27:11;;;;;;;1.13;1.13;;;17.60;99.90;;;;;;5029893;28;20211;-64
2023/05/11 11:29:38;;;;;;;1.10;1.10;;;17.70;99.90;;;;;;5029244;28;20217;-65
2023/05/11 11:32:27;;;;;;;1.20;1.20;;;18.00;99.90;;;;;;5031438;28;20262;-65
2023/05/11 11:34:54;;;;;;;1.10;1.10;;;18.30;99.90;;;;;;5020434;28;20202;-65
2023/05/11 11:37:23;;;;;;;1.00;1.00;;;18.00;99.90;;;;;;5012180;28;20201;-64
2023/05/11 11:40:00;;;;;;;1.20;1.20;;;17.70;99.90;;;;;;5010693;28;20205;-64
2023/05/11 11:42:40;;;;;;;1.10;1.10;;;17.70;99.90;;;;;;5009431;28;20228;-64
2023/05/11 11:45:27;;;;;;;1.10;1.10;;;17.60;99.90;;;;;;5012741;28;20672;-64
2023/05/11 11:48:32;;;;;;;1.40;1.40;;;17.50;99.90;;;;;;5012531;28;20278;-65
2023/05/11 11:51:05;;;;;;;1.30;1.30;;;17.50;99.90;;;;;;4989326;28;20237;-64
2023/05/11 11:54:00;;;;;;;1.10;1.10;;;17.60;99.90;;;;;;5009140;28;20205;-65
2023/05/11 11:56:43;;;;;;;1.35;1.35;;;18.00;99.90;;;;;;5008096;28;20217;-65
2023/05/11 11:59:15;;;;;;;1.40;1.40;;;18.10;99.90;;;;;;5021348;28;20200;-65
2023/05/11 12:01:44;;;;;;;1.30;1.30;;;18.20;99.90;;;;;;5040757;28;20213;-65
2023/05/11 12:04:31;;;;;;;1.70;1.60;;;18.30;99.90;;;;;;5033506;28;20207;-66
2023/05/11 12:06:59;;;;;;;1.13;1.13;;;18.40;99.90;;;;;;5033374;28;20215;-65
2023/05/11 12:09:27;;;;;;;1.07;1.07;;;18.20;99.90;;;;;;5032822;28;20211;-65
2023/05/11 12:11:55;;;;;;;1.30;1.30;;;18.20;99.90;;;;;;5032849;28;20232;-65
2023/05/11 12:14:22;;;;;;;1.10;1.10;;;18.30;99.90;;;;;;5033724;28;20556;-65
2023/05/11 12:17:12;;;;;;;1.30;1.20;;;18.20;99.90;;;;;;5033486;28;20209;-65
2023/05/11 12:19:39;;;;;;;1.80;1.10;;;18.40;99.90;;;;;;5032013;28;20204;-65
2023/05/11 12:22:06;;;;;;;1.40;1.40;;;18.60;99.90;;;;;;5033266;28;20225;-64
2023/05/11 12:24:34;;;;;;;1.20;1.20;;;18.50;99.90;;;;;;5032995;28;20211;-65
2023/05/11 12:27:03;;;;;;;1.17;1.17;;;18.40;99.90;;;;;;5033238;28;20205;-65
2023/05/11 12:29:30;;;;;;;1.27;1.27;;;18.50;99.90;;;;;;5033229;28;20254;-65
2023/05/11 12:31:58;;;;;;;1.17;1.17;;;18.50;99.90;;;;;;5033239;28;20236;-65
2023/05/11 12:34:25;;;;;;;1.00;1.00;;;18.50;99.90;;;;;;5034123;28;20783;-64
2023/05/11 12:36:54;;;;;;;1.27;1.27;;;18.60;99.90;;;;;;5034271;28;20239;-64
2023/05/11 12:39:22;;;;;;;1.40;1.30;;;18.60;99.90;;;;;;5032677;28;20617;-64
2023/05/11 12:41:53;;;;;;;1.30;1.30;;;18.40;99.90;;;;;;5033583;28;20565;-64
2023/05/11 12:44:22;;;;;;;1.40;1.30;;;18.20;99.90;;;;;;5034117;28;20219;-63
2023/05/11 12:46:50;;;;;;;1.20;1.20;;;18.30;99.90;;;;;;5034066;28;20201;-63
2023/05/11 12:49:18;;;;;;;1.10;1.10;;;18.40;99.90;;;;;;5033468;28;20212;-64
2023/05/11 12:51:50;;;;;;;1.10;1.00;;;18.70;99.90;;;;;;5033579;28;20585;-65
2023/05/11 12:54:30;;;;;;;1.33;1.23;;;19.10;99.90;;;;;;5032983;28;20208;-64
2023/05/11 12:57:00;;;;;;;1.10;1.10;;;19.40;99.90;;;;;;5032911;28;20219;-64
2023/05/11 12:59:29;;;;;;;1.33;1.23;;;19.60;99.90;;;;;;5032905;28;20204;-63